createdAt,value
2022-10-19T00:00:31.421Z,8.08
2022-10-19T00:01:31.432Z,8.07
2022-10-19T00:02:31.469Z,8.04
2022-10-19T00:03:31.390Z,8.03
2022-10-19T00:04:31.367Z,8.02
2022-10-19T00:05:31.707Z,8.03
2022-10-19T00:06:31.343Z,8.00
2022-10-19T00:07:31.741Z,7.99
2022-10-19T00:08:31.329Z,7.97
2022-10-19T00:09:31.360Z,7.94
2022-10-19T00:10:31.325Z,7.96
2022-10-19T00:11:31.305Z,7.94
2022-10-19T00:12:31.275Z,7.93
2022-10-19T00:13:31.304Z,7.92
2022-10-19T00:14:31.261Z,7.92
2022-10-19T00:15:31.245Z,7.89
2022-10-19T00:16:31.297Z,7.89
2022-10-19T00:17:31.939Z,7.89
2022-10-19T00:18:31.218Z,7.85
2022-10-19T00:19:31.259Z,7.87
2022-10-19T00:20:31.198Z,7.89
2022-10-19T00:21:31.185Z,7.90
2022-10-19T00:22:31.518Z,7.89
2022-10-19T00:23:31.158Z,7.89
2022-10-19T00:24:31.159Z,7.89
2022-10-19T00:25:31.224Z,7.85
2022-10-19T00:26:31.145Z,7.82
2022-10-19T00:27:31.123Z,7.81
2022-10-19T00:28:31.159Z,7.79
2022-10-19T00:29:31.095Z,7.79
2022-10-19T00:30:31.365Z,7.79
2022-10-19T00:31:31.111Z,7.79
2022-10-19T00:32:31.195Z,7.79
2022-10-19T00:33:31.058Z,7.82
2022-10-19T00:34:31.052Z,7.81
2022-10-19T00:35:31.034Z,7.79
2022-10-19T00:36:31.023Z,7.78
2022-10-19T00:37:31.333Z,7.75
2022-10-19T00:38:31.005Z,7.77
2022-10-19T00:39:31.010Z,7.84
2022-10-19T00:40:31.037Z,7.93
2022-10-19T00:41:30.978Z,7.96
2022-10-19T00:42:31.196Z,8.00
2022-10-19T00:43:30.976Z,8.04
2022-10-19T00:44:31.246Z,8.04
2022-10-19T00:45:30.937Z,8.03
2022-10-19T00:46:30.926Z,7.99
2022-10-19T00:47:30.907Z,7.94
2022-10-19T00:48:30.898Z,7.96
2022-10-19T00:49:30.912Z,7.97
2022-10-19T00:50:30.880Z,8.00
2022-10-19T00:51:31.166Z,8.02
2022-10-19T00:52:31.032Z,8.00
2022-10-19T00:53:30.857Z,8.00
2022-10-19T00:54:30.839Z,8.00
2022-10-19T00:55:30.864Z,8.00
2022-10-19T00:56:30.820Z,7.97
2022-10-19T00:57:30.799Z,7.94
2022-10-19T00:58:31.092Z,7.92
2022-10-19T00:59:30.784Z,7.87
2022-10-19T01:00:30.777Z,7.85
2022-10-19T01:01:30.847Z,7.82
2022-10-19T01:02:31.099Z,7.79
2022-10-19T01:03:30.746Z,7.79
2022-10-19T01:04:30.767Z,7.78
2022-10-19T01:05:30.996Z,7.78
2022-10-19T01:06:30.737Z,7.78
2022-10-19T01:07:30.864Z,7.77
2022-10-19T01:08:30.686Z,7.77
2022-10-19T01:09:30.680Z,7.74
2022-10-19T01:10:30.682Z,7.71
2022-10-19T01:11:30.655Z,7.71
2022-10-19T01:12:30.928Z,7.69
2022-10-19T01:13:30.656Z,7.66
2022-10-19T01:14:30.627Z,7.66
2022-10-19T01:15:30.610Z,7.63
2022-10-19T01:16:30.611Z,7.63
2022-10-19T01:17:30.725Z,7.60
2022-10-19T01:18:30.587Z,7.60
2022-10-19T01:19:30.877Z,7.58
2022-10-19T01:20:30.567Z,7.58
2022-10-19T01:21:30.558Z,7.58
2022-10-19T01:22:30.540Z,7.58
2022-10-19T01:23:30.535Z,7.53
2022-10-19T01:24:30.519Z,7.53
2022-10-19T01:25:30.539Z,7.53
2022-10-19T01:26:30.513Z,7.53
2022-10-19T01:27:30.701Z,7.55
2022-10-19T01:28:30.542Z,7.52
2022-10-19T01:29:30.464Z,7.52
2022-10-19T01:30:30.478Z,7.52
2022-10-19T01:31:30.501Z,7.52
2022-10-19T01:32:30.766Z,7.52
2022-10-19T01:33:30.428Z,7.52
2022-10-19T01:34:30.428Z,7.50
2022-10-19T01:35:30.405Z,7.50
2022-10-19T01:36:30.433Z,7.49
2022-10-19T01:37:30.542Z,7.47
2022-10-19T01:38:30.374Z,7.47
2022-10-19T01:39:30.673Z,7.47
2022-10-19T01:40:30.353Z,7.45
2022-10-19T01:41:30.340Z,7.45
2022-10-19T01:42:30.358Z,7.41
2022-10-19T01:43:30.346Z,7.37
2022-10-19T01:44:30.314Z,7.35
2022-10-19T01:45:30.311Z,7.32
2022-10-19T01:46:30.578Z,7.26
2022-10-19T01:47:30.343Z,7.26
2022-10-19T01:48:30.278Z,7.22
2022-10-19T01:49:30.286Z,7.19
2022-10-19T01:50:30.255Z,7.16
2022-10-19T01:51:30.232Z,7.15
2022-10-19T01:52:30.354Z,7.13
2022-10-19T01:53:30.521Z,7.09
2022-10-19T01:54:30.210Z,7.08
2022-10-19T01:55:30.218Z,7.07
2022-10-19T01:56:30.188Z,7.04
2022-10-19T01:57:30.176Z,7.01
2022-10-19T01:58:30.182Z,7.01
2022-10-19T01:59:30.161Z,6.99
2022-10-19T02:00:30.465Z,7.02
2022-10-19T02:01:30.169Z,7.02
2022-10-19T02:02:30.292Z,7.01
2022-10-19T02:03:30.109Z,6.99
2022-10-19T02:04:30.126Z,6.99
2022-10-19T02:05:30.105Z,6.97
2022-10-19T02:06:30.088Z,6.98
2022-10-19T02:07:30.388Z,6.95
2022-10-19T02:08:30.069Z,6.95
2022-10-19T02:09:30.056Z,6.91
2022-10-19T02:10:30.045Z,6.87
2022-10-19T02:11:30.029Z,6.86
2022-10-19T02:12:30.049Z,6.84
2022-10-19T02:13:30.044Z,6.81
2022-10-19T02:14:30.276Z,6.80
2022-10-19T02:15:29.987Z,6.80
2022-10-19T02:16:29.980Z,6.77
2022-10-19T02:17:29.967Z,6.73
2022-10-19T02:18:29.962Z,6.73
2022-10-19T02:19:29.973Z,6.72
2022-10-19T02:20:29.938Z,6.69
2022-10-19T02:21:30.199Z,6.69
2022-10-19T02:22:29.934Z,6.71
2022-10-19T02:23:29.902Z,6.71
2022-10-19T02:24:29.894Z,6.72
2022-10-19T02:25:29.907Z,6.69
2022-10-19T02:26:29.877Z,6.71
2022-10-19T02:27:29.865Z,6.68
2022-10-19T02:28:30.143Z,6.68
2022-10-19T02:29:29.840Z,6.66
2022-10-19T02:30:29.831Z,6.62
2022-10-19T02:31:29.862Z,6.62
2022-10-19T02:32:29.812Z,6.62
2022-10-19T02:33:29.790Z,6.62
2022-10-19T02:34:29.797Z,6.61
2022-10-19T02:35:30.051Z,6.61
2022-10-19T02:36:29.775Z,6.58
2022-10-19T02:37:29.835Z,6.59
2022-10-19T02:38:29.741Z,6.58
2022-10-19T02:39:29.746Z,6.62
2022-10-19T02:40:29.725Z,6.61
2022-10-19T02:41:29.723Z,6.61
2022-10-19T02:42:29.991Z,6.59
2022-10-19T02:43:29.738Z,6.59
2022-10-19T02:44:29.687Z,6.56
2022-10-19T02:45:29.693Z,6.56
2022-10-19T02:46:29.687Z,6.51
2022-10-19T02:47:29.656Z,6.51
2022-10-19T02:48:29.641Z,6.50
2022-10-19T02:49:29.946Z,6.50
2022-10-19T02:50:29.623Z,6.48
2022-10-19T02:51:29.613Z,6.46
2022-10-19T02:52:29.603Z,6.44
2022-10-19T02:53:29.593Z,6.41
2022-10-19T02:54:29.610Z,6.40
2022-10-19T02:55:29.729Z,6.38
2022-10-19T02:56:29.550Z,6.36
2022-10-19T02:57:29.547Z,6.35
2022-10-19T02:58:29.535Z,6.36
2022-10-19T02:59:29.527Z,6.35
2022-10-19T03:00:29.518Z,6.32
2022-10-19T03:01:29.815Z,6.30
2022-10-19T03:02:29.495Z,6.32
2022-10-19T03:03:29.487Z,6.33
2022-10-19T03:04:29.479Z,6.33
2022-10-19T03:05:29.503Z,6.33
2022-10-19T03:06:29.472Z,6.33
2022-10-19T03:07:29.588Z,6.32
2022-10-19T03:08:30.780Z,6.30
2022-10-19T03:09:31.261Z,6.28
2022-10-19T03:10:30.732Z,6.28
2022-10-19T03:11:45.534Z,6.26
2022-10-19T03:12:29.451Z,6.25
2022-10-19T03:13:29.689Z,6.19
2022-10-19T03:14:29.448Z,6.21
2022-10-19T03:15:29.447Z,6.19
2022-10-19T03:16:29.394Z,6.18
2022-10-19T03:17:32.506Z,6.18
2022-10-19T03:18:29.702Z,6.18
2022-10-19T03:19:29.393Z,6.16
2022-10-19T03:20:29.308Z,6.18
2022-10-19T03:21:29.301Z,6.16
2022-10-19T03:22:29.343Z,6.14
2022-10-19T03:23:29.278Z,6.14
2022-10-19T03:24:29.266Z,6.13
2022-10-19T03:25:30.585Z,6.11
2022-10-19T03:26:29.250Z,6.13
2022-10-19T03:27:29.303Z,6.11
2022-10-19T03:28:29.257Z,6.09
2022-10-19T03:29:29.220Z,6.06
2022-10-19T03:30:29.200Z,6.06
2022-10-19T03:31:29.250Z,6.04
2022-10-19T03:32:29.452Z,6.01
2022-10-19T03:33:29.176Z,6.00
2022-10-19T03:34:29.205Z,5.98
2022-10-19T03:35:29.164Z,5.96
2022-10-19T03:36:29.140Z,5.95
2022-10-19T03:37:29.204Z,5.92
2022-10-19T03:38:29.118Z,5.92
2022-10-19T03:39:29.392Z,5.92
2022-10-19T03:40:29.103Z,5.91
2022-10-19T03:41:29.094Z,5.91
2022-10-19T03:42:29.076Z,5.88
2022-10-19T03:43:29.094Z,5.86
2022-10-19T03:44:29.059Z,5.86
2022-10-19T03:45:29.049Z,5.83
2022-10-19T03:46:29.330Z,5.78
2022-10-19T03:47:29.042Z,5.78
2022-10-19T03:48:29.112Z,5.75
2022-10-19T03:49:29.031Z,5.75
2022-10-19T03:50:28.996Z,5.75
2022-10-19T03:51:28.993Z,5.73
2022-10-19T03:52:28.971Z,5.75
2022-10-19T03:53:31.343Z,5.77
2022-10-19T03:54:28.955Z,5.81
2022-10-19T03:55:28.985Z,5.82
2022-10-19T03:56:28.933Z,5.83
2022-10-19T03:57:28.931Z,5.85
2022-10-19T03:58:28.956Z,5.88
2022-10-19T03:59:28.903Z,5.89
2022-10-19T04:00:29.163Z,5.92
2022-10-19T04:01:29.024Z,5.92
2022-10-19T04:02:28.871Z,5.96
2022-10-19T04:03:28.901Z,6.00
2022-10-19T04:04:28.856Z,6.03
2022-10-19T04:05:28.853Z,6.09
2022-10-19T04:06:28.863Z,6.11
2022-10-19T04:07:29.123Z,6.16
2022-10-19T04:08:28.822Z,6.19
2022-10-19T04:09:28.806Z,6.25
2022-10-19T04:10:28.786Z,6.28
2022-10-19T04:11:28.778Z,6.32
2022-10-19T04:12:28.765Z,6.32
2022-10-19T04:13:28.795Z,6.36
2022-10-19T04:14:33.136Z,6.36
2022-10-19T04:15:28.743Z,6.41
2022-10-19T04:16:28.734Z,6.41
2022-10-19T04:17:28.720Z,6.46
2022-10-19T04:18:28.748Z,6.47
2022-10-19T04:19:28.742Z,6.51
2022-10-19T04:20:28.685Z,6.53
2022-10-19T04:21:28.958Z,6.54
2022-10-19T04:22:28.685Z,6.58
2022-10-19T04:23:28.661Z,6.59
2022-10-19T04:24:28.650Z,6.62
2022-10-19T04:25:28.681Z,6.65
2022-10-19T04:26:28.620Z,6.65
2022-10-19T04:27:28.623Z,6.66
2022-10-19T04:28:29.999Z,6.66
2022-10-19T04:29:30.174Z,6.69
2022-10-19T04:30:28.594Z,6.71
2022-10-19T04:31:28.617Z,6.72
2022-10-19T04:32:28.564Z,6.73
2022-10-19T04:33:28.567Z,6.76
2022-10-19T04:34:28.546Z,6.77
2022-10-19T04:35:28.813Z,6.77
2022-10-19T04:36:28.514Z,6.80
2022-10-19T04:37:28.557Z,6.80
2022-10-19T04:38:28.520Z,6.80
2022-10-19T04:39:28.493Z,6.83
2022-10-19T04:40:28.487Z,6.84
2022-10-19T04:41:28.755Z,6.86
2022-10-19T04:42:28.483Z,6.89
2022-10-19T04:43:28.516Z,6.89
2022-10-19T04:44:28.447Z,6.89
2022-10-19T04:45:28.440Z,6.90
2022-10-19T04:46:28.445Z,6.91
2022-10-19T04:47:28.411Z,6.94
2022-10-19T04:48:28.400Z,6.95
2022-10-19T04:49:28.428Z,6.95
2022-10-19T04:50:28.389Z,6.98
2022-10-19T04:51:28.379Z,6.97
2022-10-19T04:52:28.353Z,6.98
2022-10-19T04:53:28.646Z,6.98
2022-10-19T04:54:28.340Z,6.97
2022-10-19T04:55:28.363Z,6.98
2022-10-19T04:56:28.337Z,6.98
2022-10-19T04:57:28.306Z,6.99
2022-10-19T04:58:28.291Z,6.99
2022-10-19T04:59:28.294Z,7.01
2022-10-19T05:00:28.280Z,7.02
2022-10-19T05:01:28.294Z,7.04
2022-10-19T05:02:28.255Z,7.02
2022-10-19T05:03:28.251Z,7.07
2022-10-19T05:04:28.254Z,7.07
2022-10-19T05:05:28.500Z,7.07
2022-10-19T05:06:28.213Z,7.08
2022-10-19T05:07:28.240Z,7.08
2022-10-19T05:08:28.199Z,7.09
2022-10-19T05:09:28.186Z,7.12
2022-10-19T05:10:28.168Z,7.12
2022-10-19T05:11:28.171Z,7.09
2022-10-19T05:12:28.470Z,7.12
2022-10-19T05:13:28.186Z,7.09
2022-10-19T05:15:28.128Z,7.09
2022-10-19T05:16:28.131Z,7.12
2022-10-19T05:17:28.110Z,7.13
2022-10-19T05:18:28.092Z,7.12
2022-10-19T05:19:28.120Z,7.13
2022-10-19T05:20:28.074Z,7.13
2022-10-19T05:21:28.083Z,7.13
2022-10-19T05:22:28.057Z,7.12
2022-10-19T05:23:28.095Z,7.12
2022-10-19T05:24:28.047Z,7.13
2022-10-19T05:25:28.368Z,7.13
2022-10-19T05:26:28.021Z,7.15
2022-10-19T05:27:28.013Z,7.15
2022-10-19T05:28:28.037Z,7.16
2022-10-19T05:29:27.985Z,7.15
2022-10-19T05:30:27.965Z,7.15
2022-10-19T05:31:27.987Z,7.13
2022-10-19T05:32:28.226Z,7.13
2022-10-19T05:33:27.943Z,7.12
2022-10-19T05:34:27.923Z,7.12
2022-10-19T05:35:27.926Z,7.12
2022-10-19T05:36:27.919Z,7.09
2022-10-19T05:37:27.951Z,7.09
2022-10-19T05:38:27.897Z,7.07
2022-10-19T05:39:28.163Z,7.07
2022-10-19T05:40:27.859Z,7.04
2022-10-19T05:41:27.856Z,7.01
2022-10-19T05:42:27.866Z,6.99
2022-10-19T05:43:27.890Z,6.98
2022-10-19T05:44:27.872Z,6.97
2022-10-19T05:45:27.800Z,6.98
2022-10-19T05:46:28.091Z,6.98
2022-10-19T05:47:30.278Z,6.99
2022-10-19T05:48:27.794Z,7.01
2022-10-19T05:49:27.806Z,7.01
2022-10-19T05:50:27.755Z,7.01
2022-10-19T05:51:27.756Z,7.04
2022-10-19T05:52:27.746Z,7.02
2022-10-19T05:53:28.153Z,7.02
2022-10-19T05:54:28.569Z,7.04
2022-10-19T05:55:27.737Z,7.04
2022-10-19T05:56:27.701Z,7.04
2022-10-19T05:57:27.685Z,7.05
2022-10-19T05:58:27.674Z,7.08
2022-10-19T05:59:27.663Z,7.07
2022-10-19T06:00:28.073Z,7.08
2022-10-19T06:01:27.738Z,7.12
2022-10-19T06:02:27.642Z,7.13
2022-10-19T06:03:27.621Z,7.12
2022-10-19T06:04:27.623Z,7.12
2022-10-19T06:05:27.629Z,7.08
2022-10-19T06:06:27.592Z,7.07
2022-10-19T06:07:27.927Z,7.07
2022-10-19T06:08:27.585Z,7.04
2022-10-19T06:09:27.558Z,7.04
2022-10-19T06:10:27.615Z,7.04
2022-10-19T06:11:27.541Z,7.05
2022-10-19T06:12:27.569Z,7.08
2022-10-19T06:13:27.554Z,7.13
2022-10-19T06:14:27.774Z,7.15
2022-10-19T06:15:27.495Z,7.17
2022-10-19T06:16:27.500Z,7.22
2022-10-19T06:17:27.478Z,7.23
2022-10-19T06:18:27.463Z,7.26
2022-10-19T06:19:27.485Z,7.31
2022-10-19T06:20:27.492Z,7.31
2022-10-19T06:21:27.733Z,7.35
2022-10-19T06:22:27.434Z,7.34
2022-10-19T06:23:27.424Z,7.35
2022-10-19T06:24:27.394Z,7.37
2022-10-19T06:25:27.419Z,7.38
2022-10-19T06:26:27.370Z,7.41
2022-10-19T06:27:27.692Z,7.40
2022-10-19T06:28:27.356Z,7.41
2022-10-19T06:29:27.355Z,7.44
2022-10-19T06:30:27.456Z,7.47
2022-10-19T06:31:27.361Z,7.50
2022-10-19T06:32:27.321Z,7.52
2022-10-19T06:33:27.317Z,7.55
2022-10-19T06:34:27.351Z,7.58
2022-10-19T06:35:27.292Z,7.58
2022-10-19T06:36:27.368Z,7.60
2022-10-19T06:37:27.296Z,7.67
2022-10-19T06:38:27.251Z,7.67
2022-10-19T06:39:27.570Z,7.69
2022-10-19T06:40:27.323Z,7.67
2022-10-19T06:41:27.237Z,7.72
2022-10-19T06:42:27.222Z,7.75
2022-10-19T06:43:27.244Z,7.75
2022-10-19T06:44:27.192Z,7.75
2022-10-19T06:45:27.193Z,7.72
2022-10-19T06:46:27.182Z,7.75
2022-10-19T06:47:27.163Z,7.77
2022-10-19T06:48:27.146Z,7.75
2022-10-19T06:49:27.190Z,7.72
2022-10-19T06:50:27.181Z,7.69
2022-10-19T06:51:27.134Z,7.66
2022-10-19T06:52:27.102Z,7.63
2022-10-19T06:53:27.114Z,7.63
2022-10-19T06:54:27.102Z,7.63
2022-10-19T06:55:27.128Z,7.66
2022-10-19T06:56:27.090Z,7.66
2022-10-19T06:57:27.359Z,7.69
2022-10-19T06:58:27.042Z,7.66
2022-10-19T06:59:27.032Z,7.66
2022-10-19T07:00:27.063Z,7.66
2022-10-19T07:01:27.193Z,7.67
2022-10-19T07:02:27.011Z,7.69
2022-10-19T07:03:27.009Z,7.71
2022-10-19T07:04:26.998Z,7.72
2022-10-19T07:05:26.977Z,7.75
2022-10-19T07:06:26.960Z,7.78
2022-10-19T07:07:27.016Z,7.81
2022-10-19T07:08:27.235Z,7.81
2022-10-19T07:09:26.933Z,7.85
2022-10-19T07:10:26.929Z,7.85
2022-10-19T07:11:26.898Z,7.84
2022-10-19T07:12:26.898Z,7.87
2022-10-19T07:13:26.924Z,7.90
2022-10-19T07:14:26.892Z,7.92
2022-10-19T07:15:26.860Z,7.94
2022-10-19T07:16:26.884Z,7.96
2022-10-19T07:17:26.848Z,7.99
2022-10-19T07:18:26.862Z,8.02
2022-10-19T07:19:26.895Z,8.07
2022-10-19T07:20:26.839Z,8.12
2022-10-19T07:21:26.799Z,8.14
2022-10-19T07:22:28.298Z,8.18
2022-10-19T07:23:26.843Z,8.20
2022-10-19T07:24:26.781Z,8.22
2022-10-19T07:25:26.803Z,8.29
2022-10-19T07:26:27.057Z,8.32
2022-10-19T07:27:26.751Z,8.37
2022-10-19T07:28:26.737Z,8.47
2022-10-19T07:29:26.723Z,8.51
2022-10-19T07:30:26.720Z,8.55
2022-10-19T07:31:26.736Z,8.62
2022-10-19T07:32:26.685Z,8.66
2022-10-19T07:33:26.684Z,8.72
2022-10-19T07:34:28.936Z,8.78
2022-10-19T07:35:26.669Z,8.81
2022-10-19T07:36:26.650Z,8.83
2022-10-19T07:37:26.684Z,8.86
2022-10-19T07:38:26.650Z,8.88
2022-10-19T07:39:26.926Z,8.94
2022-10-19T07:40:26.627Z,8.96
2022-10-19T07:41:26.606Z,8.97
2022-10-19T07:42:26.599Z,9.04
2022-10-19T07:43:26.620Z,9.09
2022-10-19T07:44:26.562Z,9.12
2022-10-19T07:45:26.542Z,9.15
2022-10-19T07:46:26.544Z,9.20
2022-10-19T07:47:26.521Z,9.43
2022-10-19T07:48:26.571Z,9.70
2022-10-19T07:49:26.552Z,10.07
2022-10-19T07:50:26.500Z,10.12
2022-10-19T07:51:26.531Z,10.17
2022-10-19T07:52:26.799Z,10.14
2022-10-19T07:53:26.470Z,10.14
2022-10-19T07:54:26.482Z,10.21
2022-10-19T07:55:26.529Z,10.25
2022-10-19T07:56:26.431Z,10.28
2022-10-19T07:57:26.428Z,10.28
2022-10-19T07:58:26.416Z,10.28
2022-10-19T07:59:26.416Z,10.30
2022-10-19T08:00:26.435Z,10.33
2022-10-19T08:01:26.526Z,10.33
2022-10-19T08:02:30.905Z,10.34
2022-10-19T08:05:26.389Z,10.40
2022-10-19T08:06:26.352Z,10.42
2022-10-19T08:07:26.403Z,10.46
2022-10-19T08:08:26.323Z,10.43
2022-10-19T08:09:53.379Z,10.46
2022-10-19T08:10:26.287Z,10.52
2022-10-19T08:11:26.300Z,10.71
2022-10-19T08:12:26.268Z,11.09
2022-10-19T08:13:26.373Z,11.46
2022-10-19T08:14:26.254Z,11.75
2022-10-19T08:15:26.248Z,11.99
2022-10-19T08:16:26.526Z,12.29
2022-10-19T08:17:26.232Z,12.67
2022-10-19T08:18:26.267Z,13.11
2022-10-19T08:19:26.241Z,13.41
2022-10-19T08:20:26.177Z,13.67
2022-10-19T08:21:26.160Z,13.76
2022-10-19T08:22:26.181Z,14.02
2022-10-19T08:23:26.428Z,14.27
2022-10-19T08:24:26.134Z,14.54
2022-10-19T08:25:26.160Z,14.80
2022-10-19T08:26:26.111Z,14.99
2022-10-19T08:27:26.137Z,15.26
2022-10-19T08:28:26.102Z,15.43
2022-10-19T08:29:27.831Z,15.61
2022-10-19T08:30:26.369Z,15.78
2022-10-19T08:31:26.096Z,15.97
2022-10-19T08:32:26.056Z,16.11
2022-10-19T08:33:26.030Z,16.18
2022-10-19T08:34:26.029Z,16.26
2022-10-19T08:35:26.032Z,16.20
2022-10-19T08:36:26.013Z,16.31
2022-10-19T08:37:40.852Z,16.37
2022-10-19T08:38:25.990Z,16.33
2022-10-19T08:39:25.979Z,16.07
2022-10-19T08:40:25.963Z,16.30
2022-10-19T08:41:25.958Z,16.60
2022-10-19T08:42:25.951Z,16.75
2022-10-19T08:43:26.252Z,16.99
2022-10-19T08:44:25.948Z,16.83
2022-10-19T08:45:25.921Z,16.50
2022-10-19T08:46:25.917Z,16.14
2022-10-19T08:47:25.890Z,15.66
2022-10-19T08:48:25.892Z,15.59
2022-10-19T08:49:25.908Z,15.60
2022-10-19T08:50:26.173Z,15.43
2022-10-19T08:51:25.853Z,15.23
2022-10-19T08:52:28.529Z,15.21
2022-10-19T08:53:25.847Z,15.28
2022-10-19T08:54:25.844Z,15.24
2022-10-19T08:55:25.862Z,14.98
2022-10-19T08:56:49.958Z,14.84
2022-10-19T08:57:25.815Z,14.61
2022-10-19T08:58:25.835Z,14.38
2022-10-19T08:59:25.765Z,14.29
2022-10-19T09:00:25.964Z,14.32
2022-10-19T09:01:25.780Z,14.31
2022-10-19T09:02:25.751Z,14.29
2022-10-19T09:03:37.882Z,14.34
2022-10-19T09:04:25.753Z,14.32
2022-10-19T09:05:25.711Z,14.27
2022-10-19T09:06:25.732Z,14.16
2022-10-19T09:07:25.712Z,14.20
2022-10-19T09:08:25.731Z,14.21
2022-10-19T09:09:25.654Z,14.20
2022-10-19T09:10:25.662Z,14.19
2022-10-19T09:11:25.643Z,14.17
2022-10-19T09:12:25.637Z,14.12
2022-10-19T09:13:29.259Z,14.12
2022-10-19T09:14:25.642Z,14.09
2022-10-19T09:15:25.891Z,14.06
2022-10-19T09:16:25.587Z,14.07
2022-10-19T09:17:25.581Z,14.07
2022-10-19T09:18:25.556Z,14.06
2022-10-19T09:19:25.848Z,14.06
2022-10-19T09:20:25.554Z,14.02
2022-10-19T09:21:31.101Z,14.12
2022-10-19T09:22:25.549Z,14.25
2022-10-19T09:23:25.513Z,14.32
2022-10-19T09:24:25.535Z,14.37
2022-10-19T09:25:25.541Z,14.50
2022-10-19T09:26:25.480Z,14.61
2022-10-19T09:27:25.460Z,14.74
2022-10-19T09:28:29.209Z,15.02
2022-10-19T09:29:25.453Z,15.20
2022-10-19T09:30:25.483Z,15.23
2022-10-19T09:31:28.080Z,15.13
2022-10-19T09:32:25.415Z,15.21
2022-10-19T09:33:25.728Z,15.20
2022-10-19T09:34:25.409Z,14.99
2022-10-19T09:35:25.388Z,14.94
2022-10-19T09:36:33.257Z,14.93
2022-10-19T09:37:26.726Z,15.36
2022-10-19T09:38:25.369Z,15.85
2022-10-19T09:39:28.553Z,16.26
2022-10-19T09:40:25.639Z,16.65
2022-10-19T09:41:25.326Z,16.93
2022-10-19T09:42:25.373Z,16.93
2022-10-19T09:43:25.336Z,17.07
2022-10-19T09:44:25.288Z,17.04
2022-10-19T09:45:25.288Z,16.99
2022-10-19T09:46:25.281Z,16.99
2022-10-19T09:47:25.577Z,16.85
2022-10-19T09:48:25.274Z,16.62
2022-10-19T09:49:25.265Z,16.31
2022-10-19T09:50:25.246Z,15.74
2022-10-19T09:51:25.258Z,15.23
2022-10-19T09:52:25.225Z,14.94
2022-10-19T09:53:25.236Z,14.90
2022-10-19T09:54:25.484Z,14.93
2022-10-19T09:55:25.214Z,15.02
2022-10-19T09:56:25.220Z,15.21
2022-10-19T09:57:25.148Z,15.33
2022-10-19T09:58:27.922Z,15.30
2022-10-19T09:59:25.140Z,15.09
2022-10-19T10:00:25.134Z,15.06
2022-10-19T10:01:29.640Z,15.03
2022-10-19T10:02:25.202Z,14.99
2022-10-19T10:03:25.096Z,14.90
2022-10-19T10:04:25.123Z,14.81
2022-10-19T10:05:25.205Z,14.64
2022-10-19T10:06:25.122Z,14.54
2022-10-19T10:07:25.107Z,14.49
2022-10-19T10:08:25.453Z,14.68
2022-10-19T10:09:25.063Z,15.35
2022-10-19T10:10:28.170Z,15.61
2022-10-19T10:11:25.098Z,16.04
2022-10-19T10:12:25.027Z,15.96
2022-10-19T10:13:25.049Z,16.06
2022-10-19T10:14:25.024Z,16.27
2022-10-19T10:15:25.241Z,16.15
2022-10-19T10:16:24.962Z,15.99
2022-10-19T10:17:24.943Z,15.92
2022-10-19T10:18:24.947Z,15.76
2022-10-19T10:19:27.241Z,15.96
2022-10-19T10:20:24.919Z,15.85
2022-10-19T10:21:25.903Z,15.74
2022-10-19T10:22:25.171Z,15.75
2022-10-19T10:23:24.890Z,15.76
2022-10-19T10:24:24.903Z,15.61
2022-10-19T10:25:24.902Z,15.49
2022-10-19T10:26:24.875Z,15.48
2022-10-19T10:27:24.860Z,15.41
2022-10-19T10:28:24.849Z,15.35
2022-10-19T10:29:24.823Z,15.19
2022-10-19T10:30:24.969Z,15.51
2022-10-19T10:31:24.840Z,15.63
2022-10-19T10:32:24.795Z,15.61
2022-10-19T10:33:43.718Z,15.56
2022-10-19T10:34:37.551Z,15.63
2022-10-19T10:35:24.769Z,15.72
2022-10-19T10:36:24.796Z,15.99
2022-10-19T10:37:24.770Z,16.11
2022-10-19T10:38:24.736Z,16.01
2022-10-19T10:39:24.711Z,15.96
2022-10-19T10:40:24.801Z,15.84
2022-10-19T10:41:24.986Z,15.96
2022-10-19T10:42:24.698Z,16.50
2022-10-19T10:43:24.699Z,17.00
2022-10-19T10:44:24.675Z,17.23
2022-10-19T10:45:24.663Z,17.17
2022-10-19T10:46:24.661Z,17.00
2022-10-19T10:47:24.659Z,17.29
2022-10-19T10:48:24.622Z,17.55
2022-10-19T10:49:24.653Z,17.82
2022-10-19T10:50:24.634Z,17.50
2022-10-19T10:51:24.620Z,17.32
2022-10-19T10:52:24.593Z,17.06
2022-10-19T10:53:24.876Z,16.75
2022-10-19T10:54:24.590Z,16.86
2022-10-19T10:55:24.599Z,16.83
2022-10-19T10:56:24.551Z,16.70
2022-10-19T10:57:24.558Z,16.83
2022-10-19T10:58:26.858Z,16.95
2022-10-19T10:59:24.543Z,16.89
2022-10-19T11:00:24.566Z,16.93
2022-10-19T11:01:24.615Z,17.26
2022-10-19T11:02:27.538Z,16.96
2022-10-19T11:03:24.458Z,17.06
2022-10-19T11:04:24.520Z,17.28
2022-10-19T11:05:24.733Z,17.55
2022-10-19T11:07:24.537Z,17.44
2022-10-19T11:08:24.491Z,17.43
2022-10-19T11:09:24.430Z,17.67
2022-10-19T11:10:24.454Z,18.02
2022-10-19T11:11:24.376Z,18.33
2022-10-19T11:12:24.644Z,18.40
2022-10-19T11:13:24.415Z,18.18
2022-10-19T11:14:24.365Z,17.73
2022-10-19T11:15:24.457Z,17.20
2022-10-19T11:16:24.318Z,16.93
2022-10-19T11:17:24.346Z,17.06
2022-10-19T11:18:24.393Z,17.06
2022-10-19T11:19:24.346Z,16.90
2022-10-19T11:20:24.350Z,16.78
2022-10-19T11:21:24.291Z,16.78
2022-10-19T11:22:26.359Z,16.78
2022-10-19T11:23:24.252Z,16.74
2022-10-19T11:24:24.305Z,16.60
2022-10-19T11:25:24.580Z,16.78
2022-10-19T11:26:24.270Z,16.99
2022-10-19T11:27:24.259Z,17.15
2022-10-19T11:28:24.233Z,17.17
2022-10-19T11:29:24.265Z,17.43
2022-10-19T11:30:24.177Z,17.36
2022-10-19T11:31:24.204Z,17.35
2022-10-19T11:32:24.172Z,17.59
2022-10-19T11:33:24.171Z,17.69
2022-10-19T11:34:25.983Z,17.62
2022-10-19T11:35:24.205Z,17.69
2022-10-19T11:36:24.153Z,17.51
2022-10-19T11:37:24.187Z,17.70
2022-10-19T11:38:29.621Z,17.99
2022-10-19T11:39:24.133Z,18.29
2022-10-19T11:40:24.089Z,18.58
2022-10-19T11:41:24.097Z,18.72
2022-10-19T11:42:24.065Z,18.64
2022-10-19T11:43:26.970Z,18.47
2022-10-19T11:44:24.326Z,18.25
2022-10-19T11:45:24.036Z,18.13
2022-10-19T11:46:24.010Z,18.10
2022-10-19T11:47:24.008Z,17.41
2022-10-19T11:48:24.000Z,17.14
2022-10-19T11:49:24.027Z,17.30
2022-10-19T11:50:26.017Z,17.48
2022-10-19T11:51:23.967Z,17.79
2022-10-19T11:52:23.964Z,17.99
2022-10-19T11:53:24.002Z,18.33
2022-10-19T11:54:23.942Z,18.18
2022-10-19T11:55:23.979Z,18.22
2022-10-19T11:56:34.764Z,18.10
2022-10-19T11:57:23.915Z,17.94
2022-10-19T11:58:23.893Z,17.92
2022-10-19T11:59:23.903Z,18.17
2022-10-19T12:00:39.963Z,18.46
2022-10-19T12:01:23.938Z,18.46
2022-10-19T12:02:25.351Z,18.42
2022-10-19T12:03:23.859Z,17.88
2022-10-19T12:04:23.822Z,17.88
2022-10-19T12:05:23.825Z,18.13
2022-10-19T12:06:23.867Z,18.28
2022-10-19T12:07:23.891Z,18.68
2022-10-19T12:08:23.928Z,18.90
2022-10-19T12:09:23.922Z,19.01
2022-10-19T12:10:23.808Z,19.13
2022-10-19T12:11:23.774Z,19.24
2022-10-19T12:12:23.738Z,19.25
2022-10-19T12:13:23.854Z,19.39
2022-10-19T12:14:23.747Z,19.39
2022-10-19T12:15:24.047Z,19.35
2022-10-19T12:16:23.744Z,19.25
2022-10-19T12:17:23.772Z,18.98
2022-10-19T12:18:23.704Z,18.86
2022-10-19T12:19:24.834Z,18.47
2022-10-19T12:20:23.668Z,18.22
2022-10-19T12:21:23.692Z,18.43
2022-10-19T12:22:23.952Z,18.37
2022-10-19T12:23:23.644Z,18.40
2022-10-19T12:24:23.624Z,18.65
2022-10-19T12:25:23.687Z,18.99
2022-10-19T12:26:23.634Z,19.11
2022-10-19T12:27:23.626Z,19.05
2022-10-19T12:28:23.585Z,18.98
2022-10-19T12:29:23.870Z,18.72
2022-10-19T12:30:23.574Z,18.80
2022-10-19T12:31:23.630Z,18.65
2022-10-19T12:32:23.540Z,18.70
2022-10-19T12:33:23.541Z,18.79
2022-10-19T12:34:23.561Z,18.62
2022-10-19T12:35:23.553Z,18.39
2022-10-19T12:36:23.560Z,18.27
2022-10-19T12:37:23.550Z,18.29
2022-10-19T12:38:23.488Z,18.37
2022-10-19T12:39:23.494Z,18.44
2022-10-19T12:40:23.475Z,18.59
2022-10-19T12:41:23.453Z,18.50
2022-10-19T12:42:23.520Z,18.70
2022-10-19T12:43:23.473Z,18.92
2022-10-19T12:45:23.451Z,19.01
2022-10-19T12:46:23.416Z,18.72
2022-10-19T12:47:23.419Z,18.61
2022-10-19T12:48:23.741Z,18.64
2022-10-19T12:49:23.434Z,18.59
2022-10-19T12:50:23.395Z,18.52
2022-10-19T12:51:23.386Z,18.65
2022-10-19T12:52:23.389Z,18.76
2022-10-19T12:53:23.353Z,19.06
2022-10-19T12:54:23.398Z,19.17
2022-10-19T12:55:23.369Z,18.95
2022-10-19T12:56:23.315Z,18.98
2022-10-19T12:57:23.330Z,19.14
2022-10-19T12:58:23.328Z,19.32
2022-10-19T12:59:23.266Z,19.60
2022-10-19T13:00:23.561Z,19.75
2022-10-19T13:01:23.264Z,19.47
2022-10-19T13:02:23.298Z,18.82
2022-10-19T13:03:26.241Z,17.78
2022-10-19T13:04:23.206Z,17.43
2022-10-19T13:05:23.306Z,17.48
2022-10-19T13:06:23.224Z,17.55
2022-10-19T13:07:23.511Z,17.79
2022-10-19T13:08:23.228Z,17.88
2022-10-19T13:09:23.161Z,17.87
2022-10-19T13:10:23.132Z,17.54
2022-10-19T13:11:23.219Z,17.30
2022-10-19T13:12:25.601Z,17.41